sensor_id;sensor_type;location;lat;lon;timestamp;temperature;humidity
26049;DHT22;13822;51.568;5.086;2023-04-08T05:14:37;8.90;99.90
26049;DHT22;13822;51.568;5.086;2023-04-08T05:19:39;8.80;99.90
26049;DHT22;13822;51.568;5.086;2023-04-08T05:24:41;8.80;99.90
26049;DHT22;13822;51.568;5.086;2023-04-08T05:29:43;8.80;99.90
26049;DHT22;13822;51.568;5.086;2023-04-08T05:34:45;8.80;99.90
26049;DHT22;13822;51.568;5.086;2023-04-08T05:39:46;8.80;99.90
26049;DHT22;13822;51.568;5.086;2023-04-08T05:44:48;8.70;99.90
26049;DHT22;13822;51.568;5.086;2023-04-08T05:49:51;8.80;99.90
26049;DHT22;13822;51.568;5.086;2023-04-08T05:54:53;8.80;99.90
26049;DHT22;13822;51.568;5.086;2023-04-08T05:59:55;8.80;99.90
26049;DHT22;13822;51.568;5.086;2023-04-08T06:04:57;8.80;99.90
26049;DHT22;13822;51.568;5.086;2023-04-08T06:09:59;8.80;99.90
26049;DHT22;13822;51.568;5.086;2023-04-08T06:15:01;8.80;99.90
26049;DHT22;13822;51.568;5.086;2023-04-08T06:20:06;8.90;99.90
26049;DHT22;13822;51.568;5.086;2023-04-08T06:25:09;8.90;99.90
26049;DHT22;13822;51.568;5.086;2023-04-08T06:36:13;9.00;99.90
26049;DHT22;13822;51.568;5.086;2023-04-08T06:41:15;9.00;99.90
26049;DHT22;13822;51.568;5.086;2023-04-08T06:46:17;9.00;99.90
26049;DHT22;13822;51.568;5.086;2023-04-08T06:51:20;9.00;99.90
26049;DHT22;13822;51.568;5.086;2023-04-08T06:56:22;9.10;99.90
26049;DHT22;13822;51.568;5.086;2023-04-08T07:01:26;9.10;99.90
26049;DHT22;13822;51.568;5.086;2023-04-08T07:06:28;9.10;99.90
26049;DHT22;13822;51.568;5.086;2023-04-08T07:11:30;9.20;99.90
26049;DHT22;13822;51.568;5.086;2023-04-08T07:16:32;9.20;99.90
26049;DHT22;13822;51.568;5.086;2023-04-08T07:21:34;9.20;99.90
26049;DHT22;13822;51.568;5.086;2023-04-08T07:26:37;9.20;99.90
26049;DHT22;13822;51.568;5.086;2023-04-08T07:31:39;9.20;99.90
26049;DHT22;13822;51.568;5.086;2023-04-08T07:36:41;9.20;99.90
26049;DHT22;13822;51.568;5.086;2023-04-08T07:41:42;9.30;99.90
26049;DHT22;13822;51.568;5.086;2023-04-08T07:46:44;9.40;99.90
26049;DHT22;13822;51.568;5.086;2023-04-08T07:51:49;9.40;99.90
26049;DHT22;13822;51.568;5.086;2023-04-08T07:56:52;9.40;99.90
26049;DHT22;13822;51.568;5.086;2023-04-08T08:01:54;9.30;99.90
26049;DHT22;13822;51.568;5.086;2023-04-08T08:06:56;9.30;99.90
26049;DHT22;13822;51.568;5.086;2023-04-08T08:11:58;9.40;99.90
26049;DHT22;13822;51.568;5.086;2023-04-08T08:16:59;9.40;99.90
26049;DHT22;13822;51.568;5.086;2023-04-08T08:22:02;9.40;99.90
26049;DHT22;13822;51.568;5.086;2023-04-08T08:27:03;9.50;99.90
26049;DHT22;13822;51.568;5.086;2023-04-08T08:32:07;9.50;99.90
26049;DHT22;13822;51.568;5.086;2023-04-08T08:37:09;9.50;99.90
26049;DHT22;13822;51.568;5.086;2023-04-08T08:42:23;9.50;99.90
26049;DHT22;13822;51.568;5.086;2023-04-08T08:47:26;9.40;99.90
26049;DHT22;13822;51.568;5.086;2023-04-08T08:52:28;9.40;99.90
26049;DHT22;13822;51.568;5.086;2023-04-08T08:57:30;9.40;99.90
26049;DHT22;13822;51.568;5.086;2023-04-08T09:02:32;9.40;99.90
26049;DHT22;13822;51.568;5.086;2023-04-08T09:07:35;9.40;99.90
26049;DHT22;13822;51.568;5.086;2023-04-08T09:12:51;9.50;99.90
26049;DHT22;13822;51.568;5.086;2023-04-08T09:17:54;9.40;99.90
26049;DHT22;13822;51.568;5.086;2023-04-08T09:22:57;9.50;99.90
26049;DHT22;13822;51.568;5.086;2023-04-08T09:27:59;9.60;99.90
26049;DHT22;13822;51.568;5.086;2023-04-08T09:33:03;9.60;99.90
26049;DHT22;13822;51.568;5.086;2023-04-08T09:38:08;9.60;99.90
26049;DHT22;13822;51.568;5.086;2023-04-08T09:43:10;9.70;99.90
26049;DHT22;13822;51.568;5.086;2023-04-08T09:48:17;9.70;99.90
26049;DHT22;13822;51.568;5.086;2023-04-08T09:53:29;9.80;99.90
26049;DHT22;13822;51.568;5.086;2023-04-08T09:58:33;9.90;99.90
26049;DHT22;13822;51.568;5.086;2023-04-08T10:03:43;10.00;99.90
26049;DHT22;13822;51.568;5.086;2023-04-08T10:08:50;10.10;99.90
26049;DHT22;13822;51.568;5.086;2023-04-08T10:13:54;10.10;99.90
26049;DHT22;13822;51.568;5.086;2023-04-08T10:18:56;10.30;99.90
26049;DHT22;13822;51.568;5.086;2023-04-08T10:23:59;10.40;99.90
26049;DHT22;13822;51.568;5.086;2023-04-08T10:34:21;10.30;99.90
26049;DHT22;13822;51.568;5.086;2023-04-08T10:39:29;10.30;99.90
26049;DHT22;13822;51.568;5.086;2023-04-08T10:44:33;10.50;99.90
26049;DHT22;13822;51.568;5.086;2023-04-08T10:49:35;10.60;99.90
26049;DHT22;13822;51.568;5.086;2023-04-08T10:54:37;10.60;99.90
26049;DHT22;13822;51.568;5.086;2023-04-08T10:59:47;11.00;99.90
26049;DHT22;13822;51.568;5.086;2023-04-08T11:05:05;11.10;99.90
26049;DHT22;13822;51.568;5.086;2023-04-08T11:10:10;11.60;99.90
26049;DHT22;13822;51.568;5.086;2023-04-08T11:15:15;12.00;99.90
26049;DHT22;13822;51.568;5.086;2023-04-08T11:20:17;12.50;99.90
26049;DHT22;13822;51.568;5.086;2023-04-08T11:25:20;13.00;99.90
26049;DHT22;13822;51.568;5.086;2023-04-08T11:30:22;13.50;99.90
26049;DHT22;13822;51.568;5.086;2023-04-08T11:35:27;13.90;99.90
26049;DHT22;13822;51.568;5.086;2023-04-08T11:40:31;14.40;99.90
26049;DHT22;13822;51.568;5.086;2023-04-08T11:45:36;14.90;99.90
26049;DHT22;13822;51.568;5.086;2023-04-08T11:50:41;15.60;99.90
26049;DHT22;13822;51.568;5.086;2023-04-08T11:55:44;16.30;99.90
26049;DHT22;13822;51.568;5.086;2023-04-08T12:00:46;16.80;99.90
26049;DHT22;13822;51.568;5.086;2023-04-08T12:05:49;17.10;99.90
26049;DHT22;13822;51.568;5.086;2023-04-08T12:10:51;17.40;99.90
26049;DHT22;13822;51.568;5.086;2023-04-08T12:15:55;17.70;99.90
26049;DHT22;13822;51.568;5.086;2023-04-08T12:20:57;17.80;99.90
26049;DHT22;13822;51.568;5.086;2023-04-08T12:25:59;18.00;99.90
26049;DHT22;13822;51.568;5.086;2023-04-08T12:31:01;18.60;96.00
26049;DHT22;13822;51.568;5.086;2023-04-08T12:36:03;18.90;98.10
26049;DHT22;13822;51.568;5.086;2023-04-08T12:41:05;19.10;94.50
26049;DHT22;13822;51.568;5.086;2023-04-08T12:46:08;18.60;84.40
26049;DHT22;13822;51.568;5.086;2023-04-08T12:51:10;18.70;99.90
26049;DHT22;13822;51.568;5.086;2023-04-08T12:56:12;18.80;80.20
26049;DHT22;13822;51.568;5.086;2023-04-08T13:01:14;18.80;82.10
26049;DHT22;13822;51.568;5.086;2023-04-08T13:06:16;19.00;85.20
26049;DHT22;13822;51.568;5.086;2023-04-08T13:11:18;19.50;78.90
26049;DHT22;13822;51.568;5.086;2023-04-08T13:16:20;19.70;75.20
26049;DHT22;13822;51.568;5.086;2023-04-08T13:21:22;19.80;78.90
26049;DHT22;13822;51.568;5.086;2023-04-08T13:26:24;19.90;76.20
26049;DHT22;13822;51.568;5.086;2023-04-08T13:31:27;19.90;68.80
26049;DHT22;13822;51.568;5.086;2023-04-08T13:36:29;19.50;59.00
26049;DHT22;13822;51.568;5.086;2023-04-08T13:41:32;19.50;62.00
26049;DHT22;13822;51.568;5.086;2023-04-08T13:46:35;20.10;64.00
26049;DHT22;13822;51.568;5.086;2023-04-08T13:51:37;20.20;56.00
26049;DHT22;13822;51.568;5.086;2023-04-08T13:56:39;19.90;54.30
26049;DHT22;13822;51.568;5.086;2023-04-08T14:01:41;20.00;59.70
26049;DHT22;13822;51.568;5.086;2023-04-08T14:06:43;20.00;58.70
26049;DHT22;13822;51.568;5.086;2023-04-08T14:11:45;19.90;55.00
26049;DHT22;13822;51.568;5.086;2023-04-08T14:16:47;19.80;59.10
26049;DHT22;13822;51.568;5.086;2023-04-08T14:21:50;19.90;55.70
26049;DHT22;13822;51.568;5.086;2023-04-08T14:26:52;19.60;56.40
26049;DHT22;13822;51.568;5.086;2023-04-08T14:31:53;18.90;73.60
26049;DHT22;13822;51.568;5.086;2023-04-08T14:36:55;18.30;62.90
26049;DHT22;13822;51.568;5.086;2023-04-08T14:41:57;17.90;61.20
26049;DHT22;13822;51.568;5.086;2023-04-08T14:46:59;17.50;65.80
26049;DHT22;13822;51.568;5.086;2023-04-08T14:52:01;17.00;64.90
26049;DHT22;13822;51.568;5.086;2023-04-08T14:57:03;16.70;66.00
26049;DHT22;13822;51.568;5.086;2023-04-08T15:02:05;16.50;66.40
26049;DHT22;13822;51.568;5.086;2023-04-08T15:07:07;16.20;65.80
26049;DHT22;13822;51.568;5.086;2023-04-08T15:12:09;16.10;66.30
26049;DHT22;13822;51.568;5.086;2023-04-08T15:17:14;16.20;69.50
26049;DHT22;13822;51.568;5.086;2023-04-08T15:22:16;16.50;63.20
26049;DHT22;13822;51.568;5.086;2023-04-08T15:27:17;16.80;67.00
26049;DHT22;13822;51.568;5.086;2023-04-08T15:32:20;17.40;69.10
26049;DHT22;13822;51.568;5.086;2023-04-08T15:37:22;17.50;62.60
26049;DHT22;13822;51.568;5.086;2023-04-08T15:42:25;17.40;61.60
26049;DHT22;13822;51.568;5.086;2023-04-08T15:47:27;17.10;56.70
26049;DHT22;13822;51.568;5.086;2023-04-08T15:52:30;16.70;60.80
26049;DHT22;13822;51.568;5.086;2023-04-08T15:57:32;16.30;60.20
26049;DHT22;13822;51.568;5.086;2023-04-08T16:02:36;16.00;59.00
26049;DHT22;13822;51.568;5.086;2023-04-08T16:07:39;15.70;59.60
26049;DHT22;13822;51.568;5.086;2023-04-08T16:12:42;15.50;59.00
26049;DHT22;13822;51.568;5.086;2023-04-08T16:17:48;15.30;61.00
26049;DHT22;13822;51.568;5.086;2023-04-08T16:22:52;15.30;63.00
26049;DHT22;13822;51.568;5.086;2023-04-08T16:27:54;15.20;63.00
26049;DHT22;13822;51.568;5.086;2023-04-08T16:32:56;15.20;66.10
26049;DHT22;13822;51.568;5.086;2023-04-08T16:37:58;15.30;64.60
26049;DHT22;13822;51.568;5.086;2023-04-08T16:43:00;15.30;66.80
26049;DHT22;13822;51.568;5.086;2023-04-08T16:48:04;15.20;62.40
26049;DHT22;13822;51.568;5.086;2023-04-08T16:53:07;15.00;74.70
26049;DHT22;13822;51.568;5.086;2023-04-08T16:58:09;14.80;63.00
26049;DHT22;13822;51.568;5.086;2023-04-08T17:03:11;14.70;66.90
26049;DHT22;13822;51.568;5.086;2023-04-08T17:08:13;14.60;65.30
26049;DHT22;13822;51.568;5.086;2023-04-08T17:13:15;14.60;66.70
26049;DHT22;13822;51.568;5.086;2023-04-08T17:18:17;14.50;66.30
26049;DHT22;13822;51.568;5.086;2023-04-08T17:23:19;14.40;66.80
26049;DHT22;13822;51.568;5.086;2023-04-08T17:28:21;14.30;68.10
26049;DHT22;13822;51.568;5.086;2023-04-08T17:33:23;14.20;70.10
26049;DHT22;13822;51.568;5.086;2023-04-08T17:38:25;14.10;70.00
26049;DHT22;13822;51.568;5.086;2023-04-08T17:43:27;14.10;70.80
26049;DHT22;13822;51.568;5.086;2023-04-08T17:48:29;14.00;71.60
26049;DHT22;13822;51.568;5.086;2023-04-08T17:53:31;13.90;72.60
26049;DHT22;13822;51.568;5.086;2023-04-08T17:58:34;13.90;71.70
26049;DHT22;13822;51.568;5.086;2023-04-08T18:03:36;13.80;72.70
26049;DHT22;13822;51.568;5.086;2023-04-08T18:08:38;13.70;74.70
26049;DHT22;13822;51.568;5.086;2023-04-08T18:13:40;13.60;76.50
26049;DHT22;13822;51.568;5.086;2023-04-08T18:18:42;13.60;77.90
26049;DHT22;13822;51.568;5.086;2023-04-08T18:23:44;13.50;79.10
26049;DHT22;13822;51.568;5.086;2023-04-08T18:28:47;13.40;79.80
26049;DHT22;13822;51.568;5.086;2023-04-08T18:33:49;13.30;80.10
26049;DHT22;13822;51.568;5.086;2023-04-08T18:38:52;13.10;79.80
26049;DHT22;13822;51.568;5.086;2023-04-08T18:43:54;12.90;80.90
26049;DHT22;13822;51.568;5.086;2023-04-08T18:48:57;12.80;82.00
26049;DHT22;13822;51.568;5.086;2023-04-08T18:53:59;12.70;84.20
26049;DHT22;13822;51.568;5.086;2023-04-08T18:59:01;12.60;84.80
